Data for 11/21/2012

Time Sea-Level Adjusted Pressure Absolute Pressure Temperature Relative Humidity Dew Point   
(mb) (inHg) (mb) (inHg) (C) (F) (%) (C) (F)
00:05 1013 29.91 843 24.89 11.2 52.1 39 -2 28.3
00:10 1013 29.91 843 24.89 10.8 51.5 40 -2.3 27.9
00:15 1013 29.91 843 24.89 10.8 51.4 40 -2.2 28.1
00:20 1013 29.91 842 24.86 10.6 51.1 41 -2.2 28.1
00:25 1013 29.91 842 24.86 10.2 50.4 41 -2.3 27.8
00:30 1013 29.91 842 24.86 10.4 50.8 40 -2.5 27.5
00:35 1013 29.91 842 24.86 10.7 51.2 37 -3.3 26.1
00:40 1013 29.91 842 24.86 11.1 51.9 39 -2.2 28
00:45 1013 29.91 842 24.86 10.7 51.2 41 -1.9 28.6
00:50 1013 29.91 842 24.86 10.3 50.5 40 -2.7 27.2
00:55 1013 29.91 842 24.86 10.3 50.6 41 -2.3 27.9
01:00 1013 29.91 842 24.86 10.2 50.3 41 -2.4 27.8
01:05 1013 29.91 842 24.86 10.1 50.2 42 -2.1 28.1
01:10 1013 29.91 842 24.86 9.8 49.6 42 -2.6 27.4
01:15 1013 29.91 842 24.86 10.6 51.1 39 -2.7 27.1
01:20 1013 29.91 842 24.86 10.4 50.8 41 -2.4 27.7
01:25 1013 29.91 842 24.86 10.1 50.1 43 -1.9 28.5
01:30 1013 29.91 842 24.86 9.7 49.5 43 -2.1 28.2
01:35 1013 29.91 842 24.86 9.8 49.6 44 -2 28.3
01:40 1012 29.88 842 24.86 9.4 48.8 46 -1.7 28.9
01:45 1012 29.88 841 24.83 9.1 48.4 46 -1.8 28.8
01:50 1012 29.88 841 24.83 9 48.3 46 -1.8 28.7
01:55 1012 29.88 841 24.83 9 48.2 46 -2 28.4
02:00 1012 29.88 841 24.83 9.1 48.4 44 -2.3 27.8
02:05 1012 29.88 841 24.83 9.3 48.8 45 -2 28.4
02:10 1012 29.88 841 24.83 9.2 48.5 45 -2.2 28
02:15 1012 29.88 841 24.83 9.2 48.6 45 -2 28.3
02:20 1012 29.88 841 24.83 9.1 48.3 46 -1.9 28.6
02:25 1012 29.88 841 24.83 8.9 48.1 46 -2.1 28.3
02:30 1012 29.88 841 24.83 9 48.1 46 -2.1 28.3
02:35 1012 29.88 841 24.83 9 48.2 45 -2.2 28.1
02:40 1012 29.88 841 24.83 9.1 48.4 45 -2.1 28.3
02:45 1012 29.88 841 24.83 9.1 48.5 44 -2.4 27.7
02:50 1012 29.88 841 24.83 9.3 48.7 44 -2.4 27.7
02:55 1012 29.88 841 24.83 9.5 49.1 43 -2.5 27.6
03:00 1012 29.88 841 24.83 9.7 49.5 41 -3 26.6
03:05 1012 29.88 841 24.83 10.7 51.2 38 -3 26.6
03:10 1012 29.88 841 24.83 11 51.9 38 -2.6 27.2
03:15 1011 29.85 841 24.83 11 51.9 38 -2.6 27.3
03:20 1011 29.85 840 24.81 10.9 51.6 40 -2.2 28.1
03:25 1011 29.85 841 24.83 10.9 51.6 39 -2.4 27.7
03:30 1011 29.85 841 24.83 10.9 51.7 38 -2.8 26.9
03:35 1011 29.85 840 24.81 11.2 52.2 38 -2.6 27.4
03:40 1011 29.85 840 24.81 11.4 52.5 37 -2.8 26.9
03:45 1011 29.85 841 24.83 11.4 52.5 40 -1.8 28.7
03:50 1011 29.85 841 24.83 10.5 50.9 43 -1.5 29.3
03:55 1011 29.85 840 24.81 10.2 50.3 43 -1.9 28.6
04:00 1011 29.85 840 24.81 10.5 50.8 41 -2.2 28.1
04:05 1011 29.85 840 24.81 10.8 51.5 40 -2.3 27.8
04:10 1011 29.85 840 24.81 11 51.7 39 -2.3 27.9
04:15 1011 29.85 840 24.81 11 51.8 38 -2.6 27.4
04:20 1011 29.85 840 24.81 11.2 52.2 36 -3.1 26.3
04:25 1011 29.85 840 24.81 11.4 52.5 37 -2.8 27
04:30 1011 29.85 840 24.81 11.6 52.8 37 -2.6 27.2
04:35 1011 29.85 840 24.81 11.6 52.9 37 -2.6 27.4
04:40 1011 29.85 840 24.81 11.5 52.8 37 -2.7 27.1
04:45 1010 29.83 840 24.81 11.7 53 36 -2.7 27.1
04:50 1010 29.83 840 24.81 11.7 53 37 -2.5 27.6
04:55 1010 29.83 839 24.78 11.5 52.7 36 -3 26.7
05:00 1010 29.83 839 24.78 11.6 52.8 36 -3 26.6
05:05 1010 29.83 839 24.78 11.8 53.2 36 -2.8 27
05:10 1010 29.83 839 24.78 11.6 53 34 -3.5 25.8
05:15 1010 29.83 839 24.78 12 53.5 34 -3.2 26.2
05:20 1010 29.83 839 24.78 11.7 53.1 35 -3 26.6
05:25 1010 29.83 839 24.78 11.5 52.8 36 -2.9 26.9
05:30 1010 29.83 839 24.78 11.4 52.5 35 -3.5 25.6
05:35 1010 29.83 839 24.78 11.4 52.6 37 -2.7 27.2
05:40 1010 29.83 839 24.78 11 51.9 38 -2.6 27.4
05:45 1010 29.83 839 24.78 10.9 51.7 36 -3.6 25.6
05:50 1010 29.83 839 24.78 11.4 52.5 37 -2.9 26.8
05:55 1010 29.83 839 24.78 11.3 52.3 36 -3.1 26.4
06:00 1010 29.83 839 24.78 11.4 52.5 37 -2.8 26.9
06:05 1010 29.83 839 24.78 11.3 52.3 36 -3.1 26.4
06:10 1010 29.83 839 24.78 11.4 52.6 38 -2.4 27.7
06:15 1010 29.83 839 24.78 11.2 52.1 39 -2.3 27.9
06:20 1010 29.83 839 24.78 11.2 52.2 37 -2.9 26.7
06:25 1010 29.83 839 24.78 11.4 52.4 38 -2.3 27.8
06:30 1010 29.83 839 24.78 11.2 52.2 39 -2.1 28.2
06:35 1010 29.83 839 24.78 11.1 51.9 44 -0.7 30.7
06:40 1010 29.83 839 24.78 10.6 51.1 47 -0.1 31.8
06:45 1010 29.83 839 24.78 10.3 50.5 47 -0.4 31.2
06:50 1010 29.83 839 24.78 10.1 50.3 50 0.3 32.5
06:55 1010 29.83 839 24.78 9.9 49.8 51 0.2 32.3
07:00 1010 29.83 839 24.78 9.9 49.8 51 0.4 32.7
07:05 1010 29.83 839 24.78 9.8 49.6 52 0.4 32.7
07:10 1009 29.8 838 24.75 9.6 49.2 52 0.3 32.6
07:15 1009 29.8 838 24.75 9.5 49.1 53 0.3 32.6
07:20 1009 29.8 838 24.75 9.5 49.1 53 0.4 32.6
07:25 1009 29.8 838 24.75 9.6 49.3 53 0.5 32.9
07:30 1009 29.8 838 24.75 9.4 48.9 55 0.7 33.3
07:35 1009 29.8 838 24.75 9.2 48.6 53 0.1 32.3
07:40 1009 29.8 838 24.75 9.4 49 53 0.4 32.7
07:45 1009 29.8 838 24.75 9.4 48.9 54 0.5 32.8
07:50 1009 29.8 839 24.78 9.4 48.9 52 0.1 32.2
07:55 1009 29.8 838 24.75 9.6 49.2 50 -0.4 31.4
08:00 1009 29.8 839 24.78 9.7 49.5 49 -0.4 31.3
08:05 1009 29.8 839 24.78 9.9 49.7 48 -0.6 30.9
08:10 1009 29.8 838 24.75 10 50 47 -0.6 30.9
08:15 1009 29.8 838 24.75 10 49.9 48 -0.6 31
08:20 1009 29.8 838 24.75 10.1 50.1 46 -1 30.1
08:25 1009 29.8 838 24.75 10.4 50.6 44 -1.2 29.8
08:30 1009 29.8 838 24.75 10.4 50.8 45 -1 30.2
08:35 1009 29.8 838 24.75 10.4 50.8 44 -1.4 29.5
08:40 1009 29.8 838 24.75 10.5 50.8 42 -1.9 28.7
08:45 1009 29.8 838 24.75 10.5 50.9 44 -1.1 30
08:50 1009 29.8 838 24.75 10.4 50.8 43 -1.5 29.2
08:55 1009 29.8 838 24.75 10.6 51.1 42 -1.9 28.7
09:00 1009 29.8 838 24.75 10.7 51.3 41 -2.1 28.2
09:05 1009 29.8 838 24.75 10.6 51.1 42 -1.6 29.1
09:10 1009 29.8 838 24.75 10.5 51 43 -1.6 29.1
09:15 1009 29.8 838 24.75 10.6 51.1 41 -2.2 28.1
09:20 1009 29.8 838 24.75 10.7 51.2 41 -2.1 28.3
09:25 1009 29.8 838 24.75 10.5 51 42 -2 28.5
09:30 1009 29.8 838 24.75 10.7 51.2 40 -2.2 28
09:35 1009 29.8 838 24.75 10.8 51.4 41 -1.9 28.6
09:40 1009 29.8 838 24.75 10.8 51.4 40 -2.4 27.7
09:45 1009 29.8 838 24.75 11 51.7 40 -1.9 28.5
09:50 1009 29.8 838 24.75 11 51.8 40 -2.2 28.1
09:55 1009 29.8 838 24.75 10.9 51.6 41 -1.7 28.9
10:00 1009 29.8 838 24.75 10.9 51.5 40 -2.1 28.2
10:05 1009 29.8 838 24.75 11 51.8 41 -1.8 28.8
10:10 1009 29.8 838 24.75 11.2 52.1 40 -1.9 28.5
10:15 1009 29.8 838 24.75 11.3 52.3 42 -1.2 29.9
10:20 1009 29.8 838 24.75 11.3 52.3 40 -1.6 29.1
10:25 1009 29.8 838 24.75 11.4 52.6 41 -1.4 29.5
10:30 1009 29.8 838 24.75 11.5 52.6 41 -1.4 29.5
10:35 1009 29.8 838 24.75 11.4 52.5 42 -1.1 30
10:40 1009 29.8 838 24.75 11.3 52.4 40 -1.8 28.8
10:45 1009 29.8 838 24.75 11.4 52.5 40 -1.6 29
10:50 1009 29.8 838 24.75 11.5 52.7 40 -1.4 29.4
10:55 1009 29.8 838 24.75 11.4 52.5 40 -1.7 29
11:00 1009 29.8 838 24.75 11.6 52.9 39 -1.8 28.7
11:05 1009 29.8 838 24.75 11.9 53.5 38 -2 28.4
11:10 1009 29.8 838 24.75 11.8 53.3 38 -2.1 28.2
11:15 1009 29.8 838 24.75 11.9 53.4 37 -2.4 27.6
11:20 1009 29.8 838 24.75 12 53.6 36 -2.7 27.1
11:25 1009 29.8 838 24.75 12.4 54.2 31 -4.1 24.6
11:30 1009 29.8 838 24.75 12.6 54.6 30 -4.6 23.7
11:35 1009 29.8 838 24.75 12.9 55.2 29 -4.9 23.2
11:40 1009 29.8 838 24.75 13 55.4 28 -5.1 22.8
11:45 1009 29.8 838 24.75 13 55.4 28 -5.1 22.9
11:50 1009 29.8 838 24.75 12.9 55.2 27 -5.4 22.3
11:55 1009 29.8 838 24.75 12.8 55 28 -5.2 22.6
12:00 1009 29.8 838 24.75 12.7 54.9 29 -5 23.1
12:05 1009 29.8 838 24.75 12.8 55.1 28 -5.2 22.6
12:10 1009 29.8 839 24.78 12.4 54.4 49 2 35.6
12:15 1009 29.8 839 24.78 9.7 49.5 58 1.8 35.2
12:20 1009 29.8 839 24.78 8.2 46.7 64 1.8 35.2
12:25 1009 29.8 839 24.78 6.9 44.4 68 1.3 34.4
12:30 1010 29.83 839 24.78 6.1 42.9 70 1 33.8
12:35 1009 29.8 839 24.78 5.9 42.6 71 1.2 34.1
12:40 1009 29.8 838 24.75 5.9 42.6 71 1 33.8
12:45 1009 29.8 838 24.75 6 42.9 70 0.9 33.7
12:50 1009 29.8 838 24.75 6.5 43.7 66 0.7 33.3
12:55 1009 29.8 838 24.75 7.2 44.9 65 1 33.8
13:00 1009 29.8 838 24.75 6.9 44.3 65 0.8 33.5
13:05 1009 29.8 838 24.75 7.1 44.8 65 1 33.8
13:10 1009 29.8 838 24.75 7.1 44.7 64 0.7 33.3
13:15 1009 29.8 838 24.75 7.4 45.4 62 0.8 33.4
13:20 1009 29.8 838 24.75 7.6 45.7 62 0.8 33.4
13:25 1009 29.8 838 24.75 7.6 45.6 63 1 33.7
13:30 1009 29.8 838 24.75 7.4 45.3 65 1.3 34.3
13:35 1009 29.8 838 24.75 7.1 44.8 66 1.2 34.2
13:40 1009 29.8 838 24.75 7.3 45.1 65 1.2 34.2
13:45 1009 29.8 838 24.75 7.6 45.6 64 1.2 34.2
13:50 1009 29.8 838 24.75 7.8 46 64 1.4 34.5
13:55 1009 29.8 838 24.75 7.9 46.1 62 1.1 33.9
14:00 1009 29.8 838 24.75 7.7 45.9 61 0.7 33.3
14:05 1009 29.8 838 24.75 7.8 46 61 0.7 33.3
14:10 1009 29.8 838 24.75 7.8 46 61 0.7 33.3
14:15 1008 29.77 838 24.75 7.9 46.3 60 0.6 33.1
14:20 1008 29.77 838 24.75 8.1 46.6 59 0.7 33.3
14:25 1009 29.8 838 24.75 8 46.5 58 0.3 32.6
14:30 1009 29.8 838 24.75 8 46.5 57 0.1 32.2
14:35 1009 29.8 838 24.75 8.1 46.7 59 0.6 33.1
14:40 1010 29.83 839 24.78 6.7 44 72 2 35.5
14:45 1010 29.83 839 24.78 4.5 40.1 83 1.8 35.2
14:50 1011 29.85 840 24.81 3.1 37.6 88 1.4 34.5
14:55 1011 29.85 840 24.81 2.5 36.6 91 1.1 34
15:00 1011 29.85 840 24.81 2.1 35.8 91 0.9 33.5
15:05 1011 29.85 840 24.81 2 35.6 92 0.9 33.6
15:10 1010 29.83 839 24.78 2.1 35.7 93 1 33.7
15:15 1010 29.83 840 24.81 2.1 35.7 92 0.9 33.6
15:20 1010 29.83 839 24.78 1.8 35.3 93 0.9 33.5
15:25 1011 29.85 840 24.81 1.6 34.8 94 0.8 33.4
15:30 1011 29.85 840 24.81 1.4 34.5 94 0.6 33
15:35 1011 29.85 840 24.81 1.5 34.7 94 0.6 33.1
15:40 1011 29.85 840 24.81 1.6 34.9 94 0.7 33.2
15:45 1011 29.85 840 24.81 1.7 35.1 93 0.8 33.4
15:50 1010 29.83 840 24.81 1.9 35.4 92 0.6 33.2
15:55 1010 29.83 839 24.78 2.7 36.9 83 0.2 32.3
16:00 1010 29.83 840 24.81 3.7 38.6 80 0.4 32.8
16:05 1011 29.85 840 24.81 3.9 39 80 0.8 33.4
16:10 1011 29.85 840 24.81 3.9 39.1 80 0.7 33.3
16:15 1011 29.85 840 24.81 4.1 39.3 81 1 33.8
16:20 1011 29.85 840 24.81 4.1 39.4 83 1.5 34.6
16:25 1011 29.85 840 24.81 3.8 38.8 84 1.4 34.4
16:30 1011 29.85 840 24.81 3.5 38.2 86 1.4 34.4
16:35 1011 29.85 840 24.81 3.5 38.3 84 1 33.9
16:40 1011 29.85 840 24.81 3.8 38.8 82 1 33.7
16:45 1011 29.85 840 24.81 4.4 39.8 77 0.6 33.1
16:50 1011 29.85 840 24.81 4.7 40.5 75 0.6 33.1
16:55 1011 29.85 840 24.81 4.9 40.9 76 1 33.8
17:00 1011 29.85 840 24.81 5 41 76 1.1 34
17:05 1011 29.85 840 24.81 5 41 75 1 33.8
17:10 1011 29.85 840 24.81 5 41 74 0.7 33.3
17:15 1011 29.85 840 24.81 5.1 41.1 73 0.6 33
17:20 1011 29.85 841 24.83 5.1 41.2 76 1.2 34.2
17:25 1012 29.88 841 24.83 4.8 40.7 79 1.4 34.5
17:30 1012 29.88 841 24.83 4.5 40.1 80 1.3 34.4
17:35 1012 29.88 841 24.83 4.4 39.9 82 1.5 34.7
17:40 1012 29.88 841 24.83 4 39.2 83 1.4 34.5
17:45 1012 29.88 842 24.86 3 37.5 87 1.1 34.1
17:50 1013 29.91 842 24.86 2.4 36.3 90 0.9 33.5
17:55 1013 29.91 842 24.86 1.9 35.4 91 0.5 33
18:00 1013 29.91 842 24.86 1.6 34.8 92 0.3 32.6
18:05 1013 29.91 842 24.86 1.3 34.3 92 0.1 32.2
18:10 1013 29.91 842 24.86 1.1 34 93 0.1 32.1
18:15 1013 29.91 842 24.86 1.1 34 93 0 32
18:20 1013 29.91 843 24.89 1 33.9 93 -0 32
18:25 1014 29.94 843 24.89 0.9 33.6 93 -0.1 31.8
18:30 1014 29.94 843 24.89 0.7 33.2 94 -0.2 31.6
18:35 1014 29.94 843 24.89 0.5 32.9 94 -0.3 31.5
18:40 1014 29.94 843 24.89 0.4 32.7 95 -0.3 31.4
18:45 1014 29.94 843 24.89 0.3 32.5 95 -0.4 31.3
18:50 1014 29.94 844 24.92 0.2 32.3 96 -0.4 31.2
18:55 1014 29.94 843 24.89 0.2 32.3 96 -0.4 31.2
19:00 1014 29.94 843 24.89 0.2 32.4 96 -0.4 31.3
19:05 1015 29.97 844 24.92 0.2 32.3 96 -0.4 31.2
19:10 1015 29.97 844 24.92 0.1 32.2 95 -0.6 30.9
19:15 1015 29.97 844 24.92 0 32.1 95 -0.7 30.8
19:20 1015 29.97 845 24.95 0 32 94 -0.8 30.5
19:25 1015 29.97 845 24.95 -0 32 94 -0.9 30.4
19:30 1015 29.97 845 24.95 -0.1 31.9 93 -1 30.2
19:35 1015 29.97 845 24.95 -0.2 31.7 92 -1.2 29.8
19:40 1015 29.97 845 24.95 -0.2 31.6 93 -1.2 29.8
19:45 1015 29.97 844 24.92 -0.3 31.5 93 -1.3 29.6
19:50 1015 29.97 844 24.92 -0.4 31.4 92 -1.4 29.4
19:55 1015 29.97 844 24.92 -0.4 31.4 93 -1.4 29.5
20:00 1015 29.97 844 24.92 -0.5 31.2 92 -1.6 29.2
20:05 1015 29.97 844 24.92 -0.4 31.3 91 -1.7 28.9
20:10 1015 29.97 844 24.92 -0.4 31.3 90 -1.9 28.7
20:15 1015 29.97 844 24.92 -0.3 31.5 88 -2 28.5
20:20 1015 29.97 844 24.92 -0.3 31.5 87 -2.1 28.2
20:25 1015 29.97 844 24.92 -0.3 31.5 88 -2.1 28.2
20:30 1015 29.97 844 24.92 -0.4 31.2 88 -2.3 27.9
20:35 1015 29.97 844 24.92 -0.3 31.4 85 -2.6 27.4
20:40 1015 29.97 844 24.92 -0.1 31.9 83 -2.6 27.3
20:45 1015 29.97 844 24.92 0.2 32.4 79 -2.9 26.7
20:50 1015 29.97 844 24.92 0.5 33 77 -3.1 26.4
20:55 1015 29.97 844 24.92 0.8 33.5 76 -3 26.6
21:00 1015 29.97 844 24.92 0.8 33.5 77 -2.8 26.9
21:05 1015 29.97 844 24.92 0.6 33.2 78 -2.8 26.9
21:10 1015 29.97 844 24.92 0.5 32.9 78 -2.9 26.8
21:15 1015 29.97 845 24.95 0.4 32.7 78 -3.1 26.4
21:20 1015 29.97 845 24.95 0.3 32.6 78 -3.1 26.5
21:25 1016 30 845 24.95 0.2 32.3 76 -3.5 25.7
21:30 1016 30 845 24.95 0.2 32.4 76 -3.4 25.8
21:35 1016 30 845 24.95 0.3 32.6 77 -3.2 26.2
21:40 1016 30 845 24.95 0.3 32.6 77 -3.2 26.3
21:45 1016 30 845 24.95 0.4 32.6 77 -3.3 26.1
21:50 1016 30 845 24.95 0.3 32.6 75 -3.5 25.7
21:55 1016 30 845 24.95 0.4 32.7 75 -3.5 25.7
22:00 1016 30 845 24.95 0.4 32.6 74 -3.8 25.2
22:05 1016 30 845 24.95 0.3 32.5 70 -4.5 23.9
22:10 1016 30 845 24.95 0.3 32.5 71 -4.3 24.3
22:15 1016 30 845 24.95 0.2 32.4 68 -5 22.9
22:20 1016 30 846 24.98 0.2 32.4 69 -4.9 23.2
22:25 1016 30 846 24.98 -0.2 31.7 75 -4.1 24.5
22:30 1017 30.03 846 24.98 -0.6 30.8 72 -5.1 22.9
22:35 1017 30.03 846 24.98 -0.4 31.2 72 -4.9 23.1
22:40 1017 30.03 846 24.98 -0.5 31.1 72 -4.9 23.1
22:45 1017 30.03 846 24.98 -0.7 30.8 75 -4.7 23.6
22:50 1017 30.03 846 24.98 -1 30.2 75 -4.8 23.3
22:55 1017 30.03 846 24.98 -1.1 30 75 -5 23
23:00 1017 30.03 846 24.98 -1.2 29.8 75 -5.1 22.9
23:05 1017 30.03 846 24.98 -1.4 29.6 76 -5.1 22.9
23:10 1017 30.03 846 24.98 -1.4 29.4 75 -5.3 22.4
23:15 1017 30.03 846 24.98 -1.4 29.5 74 -5.5 22.1
23:20 1017 30.03 846 24.98 -1.4 29.5 72 -5.8 21.5
23:25 1017 30.03 847 25.01 -1.2 29.9 69 -6.1 21
23:30 1017 30.03 847 25.01 -0.9 30.3 66 -6.6 20.1
23:35 1017 30.03 847 25.01 -0.8 30.6 66 -6.4 20.4
23:40 1017 30.03 847 25.01 -0.8 30.6 64 -6.7 19.9
23:45 1017 30.03 847 25.01 -0.8 30.6 65 -6.6 20.1
23:50 1017 30.03 847 25.01 -1 30.1 65 -6.7 19.9
23:55 1017 30.03 847 25.01 -1.3 29.6 65 -7.1 19.3
24:00 1017 30.03 847 25.01 -1.3 29.7 65 -7.1 19.2